createdAt,value
2019-06-26T00:01:41.123Z,12.00
2019-06-26T00:04:11.279Z,10.77
2019-06-26T00:06:41.230Z,12.83
2019-06-26T00:09:11.322Z,11.43
2019-06-26T00:11:41.310Z,11.40
2019-06-26T00:14:11.644Z,11.47
2019-06-26T00:16:42.005Z,10.33
2019-06-26T00:19:11.958Z,9.47
2019-06-26T00:21:42.012Z,9.77
2019-06-26T00:24:12.030Z,11.90
2019-06-26T00:26:42.019Z,10.47
2019-06-26T00:29:12.040Z,10.73
2019-06-26T00:31:42.030Z,11.60
2019-06-26T00:34:12.202Z,10.27
2019-06-26T00:36:42.183Z,9.77
2019-06-26T00:39:12.270Z,11.37
2019-06-26T00:41:42.263Z,11.60
2019-06-26T00:44:12.279Z,9.90
2019-06-26T00:46:42.326Z,9.73
2019-06-26T00:49:12.345Z,10.60
2019-06-26T00:51:42.397Z,9.40
2019-06-26T00:54:12.414Z,10.90
2019-06-26T00:56:42.395Z,12.00
2019-06-26T00:59:12.415Z,12.50
2019-06-26T01:01:42.500Z,9.67
2019-06-26T01:04:14.126Z,11.27
2019-06-26T01:06:44.335Z,10.77
2019-06-26T01:09:15.889Z,10.87
2019-06-26T01:11:46.179Z,10.97
2019-06-26T01:14:16.022Z,12.27
2019-06-26T01:16:46.132Z,10.43
2019-06-26T01:19:16.039Z,10.70
2019-06-26T01:21:46.128Z,10.00
2019-06-26T01:24:16.043Z,11.57
2019-06-26T01:26:46.574Z,11.30
2019-06-26T01:29:16.564Z,9.93
2019-06-26T01:31:47.646Z,14.03
2019-06-26T01:34:17.634Z,10.23
2019-06-26T01:36:47.641Z,9.67
2019-06-26T01:39:17.617Z,9.73
2019-06-26T01:41:47.704Z,11.37
2019-06-26T01:44:17.623Z,12.17
2019-06-26T01:46:47.643Z,11.30
2019-06-26T01:49:18.656Z,9.60
2019-06-26T01:51:48.642Z,11.43
2019-06-26T01:54:20.039Z,13.00
2019-06-26T01:56:50.031Z,10.30
2019-06-26T01:59:20.050Z,10.57
2019-06-26T02:01:50.140Z,11.07
2019-06-26T02:04:21.230Z,11.27
2019-06-26T02:06:51.341Z,11.30
2019-06-26T02:09:22.612Z,10.63
2019-06-26T02:11:52.923Z,11.37
2019-06-26T02:14:31.162Z,9.33
2019-06-26T02:16:54.795Z,9.03
2019-06-26T02:19:24.775Z,10.97
2019-06-26T02:21:54.801Z,11.10
2019-06-26T02:24:24.799Z,11.47
2019-06-26T02:26:54.813Z,10.47
2019-06-26T02:29:24.736Z,10.57
2019-06-26T02:31:54.647Z,12.13
2019-06-26T02:34:24.594Z,9.80
2019-06-26T02:36:54.962Z,10.93
2019-06-26T02:39:24.948Z,10.03
2019-06-26T02:41:55.428Z,10.60
2019-06-26T02:44:25.334Z,9.60
2019-06-26T02:47:17.269Z,10.27
2019-06-26T02:49:27.557Z,14.07
2019-06-26T02:51:57.575Z,13.30
2019-06-26T02:54:27.568Z,10.27
2019-06-26T02:56:57.569Z,11.67
2019-06-26T02:59:27.559Z,10.10
2019-06-26T03:01:57.683Z,12.17
2019-06-26T03:04:27.732Z,8.93
2019-06-26T03:06:57.749Z,10.27
2019-06-26T03:09:27.845Z,9.27
2019-06-26T03:11:57.797Z,10.73
2019-06-26T03:14:27.784Z,10.03
2019-06-26T03:16:57.806Z,9.63
2019-06-26T03:19:27.858Z,9.43
2019-06-26T03:21:57.873Z,9.87
2019-06-26T03:24:27.861Z,11.20
2019-06-26T03:26:57.884Z,9.37
2019-06-26T03:29:27.857Z,8.67
2019-06-26T03:31:57.872Z,9.67
2019-06-26T03:34:27.942Z,12.03
2019-06-26T03:36:58.350Z,8.60
2019-06-26T03:39:28.181Z,9.67
2019-06-26T03:41:58.204Z,9.43
2019-06-26T03:44:28.153Z,9.57
2019-06-26T03:46:58.425Z,12.27
2019-06-26T03:49:28.480Z,11.27
2019-06-26T03:51:58.735Z,11.67
2019-06-26T03:54:28.730Z,11.20
2019-06-26T03:56:58.960Z,9.63
2019-06-26T03:59:28.976Z,9.53
2019-06-26T04:01:59.108Z,10.97
2019-06-26T04:04:29.614Z,9.27
2019-06-26T04:06:59.762Z,9.80
2019-06-26T04:09:29.740Z,11.43
2019-06-26T04:11:59.900Z,11.97
2019-06-26T04:14:29.890Z,10.30
2019-06-26T04:17:00.377Z,10.73
2019-06-26T04:19:30.341Z,11.57
2019-06-26T04:22:00.911Z,9.23
2019-06-26T04:24:30.831Z,9.70
2019-06-26T04:27:00.851Z,13.10
2019-06-26T04:29:30.790Z,9.00
2019-06-26T04:32:00.774Z,10.87
2019-06-26T04:34:30.729Z,10.20
2019-06-26T04:37:00.714Z,10.43
2019-06-26T04:39:30.734Z,11.73
2019-06-26T04:42:00.950Z,7.43
2019-06-26T04:44:31.197Z,9.13
2019-06-26T04:47:01.173Z,9.03
2019-06-26T04:49:31.115Z,7.20
2019-06-26T04:52:01.029Z,11.47
2019-06-26T04:54:31.691Z,8.80
2019-06-26T04:57:01.666Z,7.90
2019-06-26T04:59:31.687Z,14.17
2019-06-26T05:02:02.950Z,14.53
2019-06-26T05:04:33.412Z,11.80
2019-06-26T05:07:03.496Z,10.47
2019-06-26T05:09:33.706Z,11.80
2019-06-26T05:12:03.791Z,10.33
2019-06-26T05:14:34.329Z,11.77
2019-06-26T05:17:04.303Z,7.77
2019-06-26T05:19:34.320Z,13.10
2019-06-26T05:22:04.511Z,13.23
2019-06-26T05:24:34.457Z,12.63
2019-06-26T05:27:04.482Z,11.03
2019-06-26T05:29:34.466Z,15.50
2019-06-26T05:32:04.551Z,8.70
2019-06-26T05:34:34.475Z,9.57
2019-06-26T05:37:04.722Z,12.60
2019-06-26T05:39:34.719Z,12.00
2019-06-26T05:42:06.827Z,16.03
2019-06-26T05:44:36.479Z,14.80
2019-06-26T05:47:07.305Z,13.47
2019-06-26T05:49:37.668Z,11.87
2019-06-26T05:52:08.140Z,10.60
2019-06-26T05:54:38.128Z,13.50
2019-06-26T05:57:08.142Z,10.97
2019-06-26T05:59:38.267Z,8.27
2019-06-26T06:02:08.690Z,10.20
2019-06-26T06:04:38.673Z,12.13
2019-06-26T06:07:08.694Z,10.90
2019-06-26T06:09:38.701Z,12.57
2019-06-26T06:12:09.124Z,13.40
2019-06-26T06:14:39.323Z,13.77
2019-06-26T06:17:09.326Z,15.77
2019-06-26T06:19:39.387Z,10.63
2019-06-26T06:22:09.335Z,12.23
2019-06-26T06:24:39.362Z,15.23
2019-06-26T06:27:09.357Z,10.53
2019-06-26T06:29:39.278Z,11.43
2019-06-26T06:32:09.328Z,11.47
2019-06-26T06:34:39.355Z,8.70
2019-06-26T06:37:09.381Z,16.20
2019-06-26T06:39:39.544Z,12.67
2019-06-26T06:42:09.534Z,14.17
2019-06-26T06:44:39.569Z,15.30
2019-06-26T06:47:09.584Z,11.67
2019-06-26T06:49:39.907Z,8.97
2019-06-26T06:52:09.902Z,13.80
2019-06-26T06:54:39.926Z,11.73
2019-06-26T06:57:09.906Z,10.33
2019-06-26T06:59:40.140Z,11.03
2019-06-26T07:02:11.304Z,13.13
2019-06-26T07:04:41.345Z,10.80
2019-06-26T07:07:11.311Z,13.60
2019-06-26T07:09:41.262Z,13.67
2019-06-26T07:12:11.323Z,9.43
2019-06-26T07:14:41.338Z,14.10
2019-06-26T07:17:20.386Z,15.00
2019-06-26T07:19:43.603Z,13.43
2019-06-26T07:22:13.601Z,8.43
2019-06-26T07:24:43.463Z,11.27
2019-06-26T07:27:13.455Z,16.80
2019-06-26T07:29:43.332Z,16.20
2019-06-26T07:32:14.692Z,13.47
2019-06-26T07:34:44.703Z,8.97
2019-06-26T07:37:14.756Z,14.07
2019-06-26T07:39:44.775Z,11.90
2019-06-26T07:42:14.758Z,12.03
2019-06-26T07:44:45.015Z,14.13
2019-06-26T07:47:22.854Z,12.23
2019-06-26T07:49:46.762Z,10.33
2019-06-26T07:52:16.921Z,12.10
2019-06-26T07:54:46.931Z,14.13
2019-06-26T07:57:17.179Z,14.83
2019-06-26T07:59:47.268Z,11.97
2019-06-26T08:02:17.344Z,11.67
2019-06-26T08:04:47.395Z,9.20
2019-06-26T08:07:17.515Z,13.93
2019-06-26T08:09:47.551Z,13.53
2019-06-26T08:12:17.533Z,13.23
2019-06-26T08:14:47.542Z,8.73
2019-06-26T08:17:17.779Z,12.77
2019-06-26T08:19:47.971Z,15.77
2019-06-26T08:22:17.991Z,13.97
2019-06-26T08:24:47.946Z,13.37
2019-06-26T08:27:17.935Z,13.93
2019-06-26T08:29:47.951Z,7.80
2019-06-26T08:32:17.863Z,17.43
2019-06-26T08:34:47.810Z,16.87
2019-06-26T08:37:17.816Z,17.57
2019-06-26T08:39:47.896Z,11.67
2019-06-26T08:42:17.802Z,6.80
2019-06-26T08:44:47.746Z,11.13
2019-06-26T08:47:17.769Z,10.40
2019-06-26T08:52:37.859Z,14.90
2019-06-26T08:55:09.315Z,12.57
2019-06-26T08:57:39.406Z,14.67
2019-06-26T09:00:11.409Z,10.20
2019-06-26T09:02:41.416Z,21.47
2019-06-26T09:05:13.501Z,15.40
2019-06-26T09:07:43.526Z,13.80
2019-06-26T09:10:13.922Z,9.27
2019-06-26T09:12:45.601Z,7.47
2019-06-26T09:15:16.462Z,11.37
2019-06-26T09:17:46.419Z,13.93
2019-06-26T09:20:19.310Z,12.43
2019-06-26T09:22:49.036Z,13.33
2019-06-26T09:25:21.965Z,11.97
2019-06-26T09:27:50.658Z,9.63
2019-06-26T09:30:21.332Z,8.80
2019-06-26T09:32:51.617Z,12.70
2019-06-26T09:35:22.697Z,17.03
2019-06-26T09:37:52.725Z,15.03
2019-06-26T09:40:23.203Z,9.60
2019-06-26T09:42:53.293Z,15.03
2019-06-26T09:45:23.283Z,14.30
2019-06-26T09:47:53.780Z,13.20
2019-06-26T09:50:23.769Z,9.77
2019-06-26T09:52:54.235Z,10.53
2019-06-26T09:55:24.234Z,10.23
2019-06-26T09:57:54.242Z,12.77
2019-06-26T10:00:24.531Z,11.87
2019-06-26T10:02:54.696Z,7.57
2019-06-26T10:05:24.684Z,9.93
2019-06-26T10:07:54.600Z,13.17
2019-06-26T10:10:24.715Z,13.53
2019-06-26T10:12:54.707Z,15.63
2019-06-26T10:15:24.954Z,12.07
2019-06-26T10:17:55.079Z,13.10
2019-06-26T10:20:29.919Z,14.83
2019-06-26T10:23:00.389Z,12.20
2019-06-26T10:25:33.045Z,14.43
2019-06-26T10:28:05.587Z,12.80
2019-06-26T10:30:37.538Z,10.93
2019-06-26T10:33:10.914Z,12.20
2019-06-26T10:35:41.803Z,12.43
2019-06-26T10:38:11.869Z,16.60
2019-06-26T10:40:41.942Z,17.20
2019-06-26T10:43:11.930Z,14.53
2019-06-26T10:45:42.029Z,14.10
2019-06-26T10:48:12.081Z,18.70
2019-06-26T10:50:49.905Z,14.37
2019-06-26T10:53:13.946Z,10.50
2019-06-26T10:55:44.428Z,13.50
2019-06-26T10:58:14.495Z,19.43
2019-06-26T11:00:45.493Z,13.77
2019-06-26T11:03:15.467Z,18.20
2019-06-26T11:05:45.506Z,13.83
2019-06-26T11:08:15.370Z,11.30
2019-06-26T11:10:45.484Z,11.90
2019-06-26T11:13:16.556Z,13.07
2019-06-26T11:15:46.650Z,12.93
2019-06-26T11:18:23.630Z,11.37
2019-06-26T11:20:57.501Z,13.33
2019-06-26T11:23:29.815Z,13.05
2019-06-26T11:26:03.147Z,10.80
2019-06-26T11:28:36.072Z,12.90
2019-06-26T11:31:06.265Z,14.90
2019-06-26T11:33:39.342Z,14.83
2019-06-26T11:36:12.489Z,12.35
2019-06-26T11:38:44.480Z,16.90
2019-06-26T11:41:14.782Z,13.87
2019-06-26T11:43:47.833Z,8.00
2019-06-26T11:46:19.491Z,17.73
2019-06-26T11:48:51.168Z,13.60
2019-06-26T11:51:21.516Z,10.53
2019-06-26T11:53:52.504Z,14.10
2019-06-26T11:56:25.318Z,17.40
2019-06-26T11:58:58.507Z,12.73
2019-06-26T12:01:31.290Z,12.53
2019-06-26T12:04:03.484Z,15.30
2019-06-26T12:06:36.423Z,14.37
2019-06-26T12:09:10.112Z,20.77
2019-06-26T12:11:42.726Z,14.40
2019-06-26T12:14:17.558Z,11.23
2019-06-26T12:16:53.467Z,9.57
2019-06-26T12:19:27.382Z,13.13
2019-06-26T12:22:00.663Z,15.08
2019-06-26T12:24:33.601Z,11.90
2019-06-26T12:27:06.511Z,11.95
2019-06-26T12:29:37.655Z,12.60
2019-06-26T12:32:11.310Z,10.85
2019-06-26T12:34:45.235Z,20.30
2019-06-26T12:37:17.370Z,24.13
2019-06-26T12:39:48.535Z,12.07
2019-06-26T12:42:18.901Z,14.23
2019-06-26T12:44:49.316Z,12.00
2019-06-26T12:47:19.635Z,13.27
2019-06-26T12:49:52.656Z,11.70
2019-06-26T12:52:23.449Z,16.97
2019-06-26T12:54:53.531Z,22.60
2019-06-26T12:57:23.497Z,20.03
2019-06-26T12:59:57.811Z,13.80
2019-06-26T13:02:25.432Z,13.30
2019-06-26T13:04:55.422Z,16.70
2019-06-26T13:07:25.847Z,16.37
2019-06-26T13:09:55.836Z,19.17
2019-06-26T13:12:25.850Z,17.83
2019-06-26T13:14:55.846Z,13.67
2019-06-26T13:17:26.371Z,13.67
2019-06-26T13:19:56.410Z,20.57
2019-06-26T13:22:26.445Z,15.80
2019-06-26T13:25:01.038Z,10.87
2019-06-26T13:28:03.233Z,14.37
2019-06-26T13:30:39.674Z,15.63
2019-06-26T13:33:09.911Z,13.53
2019-06-26T13:35:40.021Z,15.87
2019-06-26T13:38:13.369Z,15.10
2019-06-26T13:40:44.036Z,10.77
2019-06-26T13:43:16.700Z,9.40
2019-06-26T13:45:52.542Z,11.50
2019-06-26T13:48:26.558Z,14.93
2019-06-26T13:51:09.219Z,16.23
2019-06-26T13:53:37.572Z,10.90
2019-06-26T13:56:08.827Z,17.17
2019-06-26T13:58:40.779Z,13.47
2019-06-26T14:01:10.983Z,13.27
2019-06-26T14:03:45.507Z,15.97
2019-06-26T14:06:20.034Z,12.17
2019-06-26T14:08:55.487Z,11.67
2019-06-26T14:11:32.372Z,10.13
2019-06-26T14:14:03.656Z,13.63
2019-06-26T14:16:33.673Z,10.93
2019-06-26T14:19:04.562Z,16.73
2019-06-26T14:21:36.170Z,14.77
2019-06-26T14:24:06.881Z,10.80
2019-06-26T14:26:37.068Z,11.73
2019-06-26T14:29:20.022Z,11.17
2019-06-26T14:31:39.121Z,13.57
2019-06-26T14:34:11.379Z,14.90
2019-06-26T14:36:41.333Z,9.87
2019-06-26T14:39:11.395Z,11.77
2019-06-26T14:41:41.817Z,17.30
2019-06-26T14:44:13.299Z,15.47
2019-06-26T14:46:44.273Z,12.10
2019-06-26T14:49:14.394Z,10.90
2019-06-26T14:51:47.715Z,10.43
2019-06-26T14:54:16.131Z,11.70
2019-06-26T14:56:47.847Z,18.73
2019-06-26T14:59:17.927Z,9.33
2019-06-26T15:01:53.779Z,14.83
2019-06-26T15:04:26.580Z,12.97
2019-06-26T15:06:56.991Z,10.20
2019-06-26T15:09:27.001Z,9.73
2019-06-26T15:11:57.459Z,10.53
2019-06-26T15:14:28.704Z,10.93
2019-06-26T15:16:59.146Z,12.03
2019-06-26T15:19:29.218Z,9.77
2019-06-26T15:21:59.375Z,19.17
2019-06-26T15:24:29.398Z,15.03
2019-06-26T15:26:59.386Z,17.20
2019-06-26T15:29:29.345Z,20.23
2019-06-26T15:31:59.449Z,12.83
2019-06-26T15:34:31.247Z,13.20
2019-06-26T15:37:01.715Z,11.50
2019-06-26T15:39:32.399Z,8.93
2019-06-26T15:42:02.987Z,13.13
2019-06-26T15:44:33.418Z,12.10
2019-06-26T15:47:03.682Z,13.60
2019-06-26T15:49:34.371Z,14.80
2019-06-26T15:52:14.878Z,10.23
2019-06-26T15:54:38.187Z,14.58
2019-06-26T15:57:14.676Z,13.47
2019-06-26T15:59:44.852Z,18.50
2019-06-26T16:02:15.141Z,13.00
2019-06-26T16:04:45.273Z,15.03
2019-06-26T16:07:15.304Z,11.87
2019-06-26T16:09:45.608Z,12.33
2019-06-26T16:12:15.686Z,9.80
2019-06-26T16:14:46.000Z,13.53
2019-06-26T16:17:17.734Z,15.07
2019-06-26T16:19:48.229Z,14.27
2019-06-26T16:22:31.603Z,9.33
2019-06-26T16:24:51.465Z,17.67
2019-06-26T16:27:23.661Z,15.73
2019-06-26T16:29:53.752Z,14.17
2019-06-26T16:32:35.326Z,11.07
2019-06-26T16:35:08.073Z,14.70
2019-06-26T16:37:39.130Z,13.70
2019-06-26T16:40:09.746Z,13.50
2019-06-26T16:42:40.368Z,9.43
2019-06-26T16:45:10.955Z,13.23
2019-06-26T16:47:41.146Z,13.97
2019-06-26T16:50:12.363Z,12.93
2019-06-26T16:52:49.011Z,18.57
2019-06-26T16:55:15.265Z,9.37
2019-06-26T16:57:45.571Z,10.60
2019-06-26T17:00:16.681Z,15.80
2019-06-26T17:02:46.806Z,11.57
2019-06-26T17:05:17.723Z,14.23
2019-06-26T17:07:47.775Z,10.53
2019-06-26T17:10:18.780Z,12.50
2019-06-26T17:12:48.832Z,17.23
2019-06-26T17:15:19.255Z,15.20
2019-06-26T17:17:49.271Z,15.80
2019-06-26T17:20:19.280Z,13.60
2019-06-26T17:23:04.632Z,15.53
2019-06-26T17:25:21.017Z,10.67
2019-06-26T17:27:50.945Z,15.97
2019-06-26T17:30:20.974Z,13.70
2019-06-26T17:32:51.593Z,16.57
2019-06-26T17:35:21.622Z,16.87
2019-06-26T17:37:52.099Z,15.13
2019-06-26T17:40:22.594Z,10.93
2019-06-26T17:43:08.217Z,13.70
2019-06-26T17:45:26.110Z,15.00
2019-06-26T17:47:56.100Z,17.57
2019-06-26T17:50:26.123Z,14.83
2019-06-26T17:52:56.110Z,14.60
2019-06-26T17:55:26.576Z,20.03
2019-06-26T17:57:56.529Z,20.47
2019-06-26T18:00:32.438Z,19.07
2019-06-26T18:03:02.469Z,21.27
2019-06-26T18:05:32.450Z,22.33
2019-06-26T18:08:02.401Z,25.87
2019-06-26T18:10:32.404Z,26.03
2019-06-26T18:13:02.531Z,21.67
2019-06-26T18:15:32.500Z,21.97
2019-06-26T18:18:02.523Z,23.53
2019-06-26T18:20:32.739Z,20.40
2019-06-26T18:23:07.381Z,27.20
2019-06-26T18:25:34.720Z,27.53
2019-06-26T18:28:04.749Z,24.97
2019-06-26T18:30:34.772Z,26.27
2019-06-26T18:33:04.771Z,28.53
2019-06-26T18:35:34.801Z,24.73
2019-06-26T18:38:04.791Z,21.03
2019-06-26T18:40:35.979Z,19.27
2019-06-26T18:43:06.027Z,21.33
2019-06-26T18:45:36.122Z,16.07
2019-06-26T18:48:06.140Z,21.77
2019-06-26T18:50:36.336Z,14.10
2019-06-26T18:53:06.614Z,20.00
2019-06-26T18:55:36.560Z,16.33
2019-06-26T18:58:06.752Z,25.40
2019-06-26T19:00:36.779Z,23.03
2019-06-26T19:03:06.770Z,22.27
2019-06-26T19:05:36.794Z,21.83
2019-06-26T19:08:06.793Z,25.60
2019-06-26T19:10:36.751Z,31.37
2019-06-26T19:13:07.939Z,29.43
2019-06-26T19:15:37.967Z,30.40
2019-06-26T19:18:09.336Z,17.23
2019-06-26T19:20:39.443Z,16.77
2019-06-26T19:23:09.417Z,15.60
2019-06-26T19:25:39.507Z,15.53
2019-06-26T19:28:10.502Z,15.57
2019-06-26T19:30:41.748Z,13.60
2019-06-26T19:33:12.030Z,16.33
2019-06-26T19:35:42.018Z,12.10
2019-06-26T19:38:12.042Z,16.90
2019-06-26T19:40:42.337Z,17.13
2019-06-26T19:43:12.526Z,16.27
2019-06-26T19:45:42.514Z,13.60
2019-06-26T19:48:12.734Z,11.97
2019-06-26T19:50:42.748Z,15.30
2019-06-26T19:53:12.747Z,15.80
2019-06-26T19:55:42.770Z,19.03
2019-06-26T19:58:12.758Z,17.67
2019-06-26T20:00:43.103Z,15.53
2019-06-26T20:03:14.090Z,13.07
2019-06-26T20:05:44.079Z,16.37
2019-06-26T20:08:14.103Z,13.00
2019-06-26T20:10:44.094Z,12.60
2019-06-26T20:13:14.519Z,18.90
2019-06-26T20:15:45.858Z,15.37
2019-06-26T20:18:16.939Z,15.87
2019-06-26T20:20:47.600Z,12.20
2019-06-26T20:23:17.548Z,13.73
2019-06-26T20:25:47.568Z,13.57
2019-06-26T20:28:17.554Z,14.93
2019-06-26T20:30:47.855Z,22.43
2019-06-26T20:33:17.842Z,14.00
2019-06-26T20:35:48.105Z,12.00
2019-06-26T20:38:18.016Z,17.40
2019-06-26T20:40:48.038Z,18.50
2019-06-26T20:43:19.333Z,16.83
2019-06-26T20:45:49.250Z,15.07
2019-06-26T20:48:19.199Z,15.50
2019-06-26T20:50:49.188Z,12.53
2019-06-26T20:53:19.134Z,15.20
2019-06-26T20:55:49.158Z,13.03
2019-06-26T20:58:19.072Z,15.67
2019-06-26T21:00:49.098Z,12.97
2019-06-26T21:03:21.220Z,13.57
2019-06-26T21:05:50.728Z,16.17
2019-06-26T21:08:20.891Z,14.23
2019-06-26T21:10:50.806Z,14.77
2019-06-26T21:13:20.763Z,10.90
2019-06-26T21:15:52.947Z,11.40
2019-06-26T21:18:22.271Z,16.57
2019-06-26T21:20:52.258Z,14.03
2019-06-26T21:23:23.596Z,12.20
2019-06-26T21:25:53.975Z,16.90
2019-06-26T21:28:23.968Z,12.17
2019-06-26T21:30:54.315Z,12.47
2019-06-26T21:33:24.317Z,16.70
2019-06-26T21:35:54.329Z,15.83
2019-06-26T21:38:24.804Z,10.37
2019-06-26T21:40:55.296Z,11.90
2019-06-26T21:43:26.187Z,10.90
2019-06-26T21:45:56.884Z,12.23
2019-06-26T21:48:26.797Z,14.23
2019-06-26T21:50:56.823Z,11.47
2019-06-26T21:53:26.673Z,12.33
2019-06-26T21:56:14.563Z,20.37
2019-06-26T21:59:04.577Z,10.80
2019-06-26T22:01:52.509Z,17.60
2019-06-26T22:04:40.358Z,14.50
2019-06-26T22:07:21.798Z,11.83
2019-06-26T22:09:56.545Z,10.87
2019-06-26T22:12:26.869Z,12.90
2019-06-26T22:14:57.167Z,12.70
2019-06-26T22:17:27.219Z,19.30
2019-06-26T22:19:57.308Z,13.73
2019-06-26T22:22:27.296Z,15.43
2019-06-26T22:24:57.389Z,12.80
2019-06-26T22:27:27.379Z,13.53
2019-06-26T22:29:57.419Z,11.13
2019-06-26T22:32:27.386Z,14.30
2019-06-26T22:34:57.782Z,11.93
2019-06-26T22:37:27.772Z,15.60
2019-06-26T22:39:57.866Z,11.73
2019-06-26T22:42:28.106Z,15.03
2019-06-26T22:44:58.201Z,10.33
2019-06-26T22:47:28.761Z,16.10
2019-06-26T22:49:58.792Z,15.33
2019-06-26T22:52:28.854Z,13.90
2019-06-26T22:54:59.190Z,16.73
2019-06-26T22:57:29.181Z,15.03
2019-06-26T22:59:59.226Z,11.13
2019-06-26T23:02:29.249Z,12.80
2019-06-26T23:04:59.240Z,13.07
2019-06-26T23:07:30.592Z,12.90
2019-06-26T23:10:00.591Z,14.97
2019-06-26T23:12:31.187Z,12.80
2019-06-26T23:15:01.307Z,10.13
2019-06-26T23:17:32.048Z,12.10
2019-06-26T23:20:02.043Z,13.43
2019-06-26T23:22:32.914Z,9.77
2019-06-26T23:25:03.602Z,14.30
2019-06-26T23:27:33.632Z,15.30
2019-06-26T23:30:05.464Z,11.87
2019-06-26T23:32:35.428Z,12.80
2019-06-26T23:35:06.621Z,11.20
2019-06-26T23:37:36.583Z,11.17
2019-06-26T23:40:06.682Z,14.83
2019-06-26T23:42:36.708Z,15.17
2019-06-26T23:45:10.413Z,12.87
2019-06-26T23:47:40.390Z,11.78
2019-06-26T23:50:10.786Z,11.67
2019-06-26T23:52:40.813Z,12.40
2019-06-26T23:55:11.321Z,14.93
2019-06-26T23:57:57.610Z,16.67
